Time,TemperatureF,DewpointF,PressureIn,WindDirection,WindDirectionDegrees,WindSpeedMPH,WindSpeedGustMPH,Humidity,HourlyPrecipIn,Conditions,Clouds,dailyrainin,SolarRadiationWatts/m^2,SoftwareType,DateUTC
2013-07-28 00:02:00,70.0,44.0,-100.00,WSW,243,10.0,18.0,39,0.00,,,0.06,0.000000,,2013-07-28 06:02:00,
2013-07-28 00:32:00,72.0,44.0,-100.00,WSW,246,10.0,21.0,37,0.00,,,0.06,0.000000,,2013-07-28 06:32:00,
2013-07-28 01:32:00,66.0,45.0,-100.00,West,269,3.0,21.0,46,-99.99,,,0.06,0.000000,,2013-07-28 07:32:00,
2013-07-28 01:43:00,66.0,45.0,-100.00,West,269,3.0,21.0,46,-99.99,,,0.06,0.000000,,2013-07-28 07:43:00,
2013-07-28 01:53:00,66.0,45.0,-100.00,West,269,3.0,21.0,46,-99.99,,,0.06,0.000000,,2013-07-28 07:53:00,
2013-07-28 02:02:00,66.0,45.0,-100.00,West,269,3.0,21.0,46,-99.99,,,0.06,0.000000,,2013-07-28 08:02:00,
2013-07-28 02:33:00,63.0,45.0,-100.00,SSE,159,5.0,10.0,51,0.00,,,0.06,0.000000,,2013-07-28 08:33:00,
2013-07-28 02:43:00,63.0,45.0,-100.00,SSE,159,5.0,10.0,51,0.00,,,0.06,0.000000,,2013-07-28 08:43:00,
2013-07-28 02:53:00,63.0,45.0,-100.00,SSE,159,5.0,10.0,51,0.00,,,0.06,0.000000,,2013-07-28 08:53:00,
2013-07-28 03:02:00,63.0,45.0,-100.00,SSE,159,5.0,10.0,51,0.00,,,0.06,0.000000,,2013-07-28 09:02:00,
2013-07-28 03:32:00,61.0,47.0,-100.00,SW,215,4.0,10.0,60,0.00,,,0.06,0.000000,,2013-07-28 09:32:00,
2013-07-28 03:43:00,61.0,47.0,-100.00,SW,215,4.0,10.0,60,0.00,,,0.06,0.000000,,2013-07-28 09:43:00,
2013-07-28 03:53:00,61.0,47.0,-100.00,SW,215,4.0,10.0,60,0.00,,,0.06,0.000000,,2013-07-28 09:53:00,
2013-07-28 04:02:00,61.0,47.0,-100.00,SW,215,4.0,10.0,60,0.00,,,0.06,0.000000,,2013-07-28 10:02:00,
2013-07-28 04:33:00,57.0,46.0,-100.00,SW,236,3.0,7.0,67,0.00,,,0.06,0.000000,,2013-07-28 10:33:00,
2013-07-28 04:42:00,57.0,46.0,-100.00,SW,236,3.0,7.0,67,0.00,,,0.06,0.000000,,2013-07-28 10:42:00,
2013-07-28 04:53:00,57.0,46.0,-100.00,SW,236,3.0,7.0,67,0.00,,,0.06,0.000000,,2013-07-28 10:53:00,
2013-07-28 05:02:00,57.0,46.0,-100.00,SW,236,3.0,7.0,67,0.00,,,0.06,0.000000,,2013-07-28 11:02:00,
2013-07-28 05:22:00,56.0,46.0,-100.00,SW,216,2.0,9.0,69,0.00,,,0.06,0.000000,,2013-07-28 11:22:00,
2013-07-28 05:33:00,56.0,46.0,-100.00,SW,216,2.0,9.0,69,0.00,,,0.06,0.000000,,2013-07-28 11:33:00,
2013-07-28 05:43:00,56.0,46.0,-100.00,SW,216,2.0,9.0,69,0.00,,,0.06,0.000000,,2013-07-28 11:43:00,
2013-07-28 05:54:00,56.0,46.0,-100.00,SW,216,2.0,9.0,69,0.00,,,0.06,0.000000,,2013-07-28 11:54:00,
2013-07-28 06:02:00,56.0,46.0,-100.00,SW,216,2.0,9.0,69,0.00,,,0.06,0.000000,,2013-07-28 12:02:00,
2013-07-28 06:33:00,58.0,49.0,-100.00,SSW,211,1.0,7.0,72,0.00,,,0.06,0.000000,,2013-07-28 12:33:00,
2013-07-28 06:43:00,58.0,49.0,-100.00,SSW,211,1.0,7.0,72,0.00,,,0.06,0.000000,,2013-07-28 12:43:00,
2013-07-28 06:53:00,58.0,49.0,-100.00,SSW,211,1.0,7.0,72,0.00,,,0.06,0.000000,,2013-07-28 12:53:00,
2013-07-28 07:02:00,58.0,49.0,-100.00,SSW,211,1.0,7.0,72,0.00,,,0.06,0.000000,,2013-07-28 13:02:00,
2013-07-28 07:32:00,57.0,47.0,-100.00,West,270,0.0,6.0,68,0.00,,,0.06,26.000000,,2013-07-28 13:32:00,
2013-07-28 07:43:00,57.0,47.0,-100.00,West,270,0.0,6.0,68,0.00,,,0.06,26.000000,,2013-07-28 13:43:00,
2013-07-28 07:53:00,57.0,47.0,-100.00,West,270,0.0,6.0,68,0.00,,,0.06,26.000000,,2013-07-28 13:53:00,
2013-07-28 08:02:00,57.0,47.0,-100.00,West,270,0.0,6.0,68,0.00,,,0.06,26.000000,,2013-07-28 14:02:00,
2013-07-28 08:33:00,61.0,52.0,-100.00,South,186,1.0,7.0,71,0.00,,,0.06,72.000000,,2013-07-28 14:33:00,
2013-07-28 08:43:00,61.0,52.0,-100.00,South,186,1.0,7.0,71,0.00,,,0.06,72.000000,,2013-07-28 14:43:00,
2013-07-28 08:53:00,61.0,52.0,-100.00,South,186,1.0,7.0,71,0.00,,,0.06,72.000000,,2013-07-28 14:53:00,
2013-07-28 09:02:00,61.0,52.0,-100.00,South,186,1.0,7.0,71,0.00,,,0.06,72.000000,,2013-07-28 15:02:00,
2013-07-28 09:33:00,66.0,52.0,-100.00,ESE,106,4.0,6.0,61,0.00,,,0.06,349.000000,,2013-07-28 15:33:00,
2013-07-28 09:43:00,66.0,52.0,-100.00,ESE,106,4.0,6.0,61,0.00,,,0.06,349.000000,,2013-07-28 15:43:00,
2013-07-28 09:53:00,66.0,52.0,-100.00,ESE,106,4.0,6.0,61,0.00,,,0.06,349.000000,,2013-07-28 15:53:00,
2013-07-28 10:02:00,66.0,52.0,-100.00,ESE,106,4.0,6.0,61,0.00,,,0.06,349.000000,,2013-07-28 16:02:00,
2013-07-28 10:33:00,70.0,51.0,-100.00,NE,43,10.0,10.0,51,0.00,,,0.06,398.000000,,2013-07-28 16:33:00,
2013-07-28 10:43:00,70.0,51.0,-100.00,NE,43,10.0,10.0,51,0.00,,,0.06,398.000000,,2013-07-28 16:43:00,
2013-07-28 10:52:00,70.0,51.0,-100.00,NE,43,10.0,10.0,51,0.00,,,0.06,398.000000,,2013-07-28 16:52:00,
2013-07-28 11:02:00,70.0,51.0,-100.00,NE,43,10.0,10.0,51,0.00,,,0.06,398.000000,,2013-07-28 17:02:00,
2013-07-28 11:33:00,72.0,51.0,-100.00,NE,45,7.0,18.0,47,0.00,,,0.06,705.000000,,2013-07-28 17:33:00,
2013-07-28 11:43:00,72.0,51.0,-100.00,NE,45,7.0,18.0,47,0.00,,,0.06,705.000000,,2013-07-28 17:43:00,
2013-07-28 11:53:00,72.0,51.0,-100.00,NE,45,7.0,18.0,47,0.00,,,0.06,705.000000,,2013-07-28 17:53:00,
2013-07-28 12:02:00,72.0,51.0,-100.00,NE,45,7.0,18.0,47,0.00,,,0.06,705.000000,,2013-07-28 18:02:00,
2013-07-28 12:33:00,74.0,50.0,-100.00,NE,54,5.0,14.0,43,0.00,,,0.06,819.000000,,2013-07-28 18:33:00,
2013-07-28 12:43:00,74.0,50.0,-100.00,NE,54,5.0,14.0,43,0.00,,,0.06,819.000000,,2013-07-28 18:43:00,
2013-07-28 12:52:00,74.0,50.0,-100.00,NE,54,5.0,14.0,43,0.00,,,0.06,819.000000,,2013-07-28 18:52:00,
2013-07-28 13:02:00,74.0,50.0,-100.00,NE,54,5.0,14.0,43,0.00,,,0.06,819.000000,,2013-07-28 19:02:00,
2013-07-28 13:33:00,77.0,50.0,-100.00,ENE,61,8.0,13.0,39,0.00,,,0.06,1070.000000,,2013-07-28 19:33:00,
2013-07-28 13:43:00,77.0,50.0,-100.00,ENE,61,8.0,13.0,39,0.00,,,0.06,1070.000000,,2013-07-28 19:43:00,
2013-07-28 13:52:00,77.0,50.0,-100.00,ENE,61,8.0,13.0,39,0.00,,,0.06,1070.000000,,2013-07-28 19:52:00,
2013-07-28 14:02:00,77.0,50.0,-100.00,ENE,61,8.0,13.0,39,0.00,,,0.06,1070.000000,,2013-07-28 20:02:00,
2013-07-28 14:23:00,81.0,49.0,-100.00,NE,35,8.0,16.0,33,0.00,,,0.06,1155.000000,,2013-07-28 20:23:00,
2013-07-28 14:33:00,81.0,49.0,-100.00,NE,35,8.0,16.0,33,0.00,,,0.06,1155.000000,,2013-07-28 20:33:00,
2013-07-28 14:43:00,81.0,49.0,-100.00,NE,35,8.0,16.0,33,0.00,,,0.06,1155.000000,,2013-07-28 20:43:00,
2013-07-28 14:53:00,81.0,49.0,-100.00,NE,35,8.0,16.0,33,0.00,,,0.06,1155.000000,,2013-07-28 20:53:00,
2013-07-28 15:02:00,81.0,49.0,-100.00,NE,35,8.0,16.0,33,0.00,,,0.06,1155.000000,,2013-07-28 21:02:00,
2013-07-28 15:33:00,75.0,40.0,-100.00,North,353,11.0,22.0,28,0.00,,,0.06,603.000000,,2013-07-28 21:33:00,
2013-07-28 15:44:00,75.0,40.0,-100.00,North,353,11.0,22.0,28,0.00,,,0.06,603.000000,,2013-07-28 21:44:00,
2013-07-28 15:52:00,75.0,40.0,-100.00,North,353,11.0,22.0,28,0.00,,,0.06,603.000000,,2013-07-28 21:52:00,
2013-07-28 16:01:00,75.0,40.0,-100.00,North,353,11.0,22.0,28,0.00,,,0.06,603.000000,,2013-07-28 22:01:00,
2013-07-28 16:32:00,73.0,50.0,-100.00,NW,316,4.0,17.0,44,0.08,,,0.14,281.000000,,2013-07-28 22:32:00,
2013-07-28 16:43:00,73.0,50.0,-100.00,NW,316,4.0,17.0,44,0.08,,,0.14,281.000000,,2013-07-28 22:43:00,
2013-07-28 16:52:00,73.0,50.0,-100.00,NW,316,4.0,17.0,44,0.08,,,0.14,281.000000,,2013-07-28 22:52:00,
2013-07-28 17:02:00,73.0,50.0,-100.00,NW,316,4.0,17.0,44,0.08,,,0.14,281.000000,,2013-07-28 23:02:00,
2013-07-28 17:33:00,77.0,43.0,-100.00,NE,46,13.0,17.0,30,0.01,,,0.15,869.000000,,2013-07-28 23:33:00,
2013-07-28 17:43:00,77.0,43.0,-100.00,NE,46,13.0,17.0,30,0.01,,,0.15,869.000000,,2013-07-28 23:43:00,
2013-07-28 17:53:00,77.0,43.0,-100.00,NE,46,13.0,17.0,30,0.01,,,0.15,869.000000,,2013-07-28 23:53:00,
2013-07-28 18:02:00,77.0,43.0,-100.00,NE,46,13.0,17.0,30,0.01,,,0.15,869.000000,,2013-07-29 00:02:00,
2013-07-28 18:32:00,79.0,46.0,-100.00,NNW,346,9.0,18.0,31,0.00,,,0.14,388.000000,,2013-07-29 00:32:00,
2013-07-28 18:43:00,79.0,46.0,-100.00,NNW,346,9.0,18.0,31,0.00,,,0.14,388.000000,,2013-07-29 00:43:00,
2013-07-28 18:52:00,79.0,46.0,-100.00,NNW,346,9.0,18.0,31,0.00,,,0.14,388.000000,,2013-07-29 00:52:00,
2013-07-28 19:01:00,79.0,46.0,-100.00,NNW,346,9.0,18.0,31,0.00,,,0.14,388.000000,,2013-07-29 01:01:00,
2013-07-28 19:38:00,78.0,44.0,-100.00,NNW,348,11.0,17.0,30,0.00,,,0.09,215.000000,,2013-07-29 01:38:00,
2013-07-28 19:47:00,78.0,44.0,-100.00,NNW,348,11.0,17.0,30,0.00,,,0.09,215.000000,,2013-07-29 01:47:00,
2013-07-28 19:59:00,78.0,44.0,-100.00,NNW,348,11.0,17.0,30,0.00,,,0.09,215.000000,,2013-07-29 01:59:00,
2013-07-28 20:48:00,73.0,44.0,-100.00,NNW,331,9.0,17.0,35,0.00,,,0.09,138.000000,,2013-07-29 02:48:00,
2013-07-28 20:58:00,73.0,44.0,-100.00,NNW,331,9.0,17.0,35,0.00,,,0.09,138.000000,,2013-07-29 02:58:00,
2013-07-28 21:37:00,72.0,44.0,-100.00,NNW,342,4.0,13.0,37,0.00,,,0.09,21.000000,,2013-07-29 03:37:00,
2013-07-28 21:48:00,72.0,44.0,-100.00,NNW,342,4.0,13.0,37,0.00,,,0.09,21.000000,,2013-07-29 03:48:00,
2013-07-28 21:58:00,72.0,44.0,-100.00,NNW,342,4.0,13.0,37,0.00,,,0.09,21.000000,,2013-07-29 03:58:00,
2013-07-28 22:02:00,72.0,44.0,-100.00,NNW,342,4.0,13.0,37,0.00,,,0.09,21.000000,,2013-07-29 04:02:00,
2013-07-28 22:33:00,69.0,44.0,-100.00,West,269,1.0,12.0,41,0.00,,,0.09,0.000000,,2013-07-29 04:33:00,
2013-07-28 22:43:00,69.0,44.0,-100.00,West,269,1.0,12.0,41,0.00,,,0.09,0.000000,,2013-07-29 04:43:00,
2013-07-28 22:53:00,69.0,44.0,-100.00,West,269,1.0,12.0,41,0.00,,,0.09,0.000000,,2013-07-29 04:53:00,
2013-07-28 23:02:00,69.0,44.0,-100.00,West,269,1.0,12.0,41,0.00,,,0.09,0.000000,,2013-07-29 05:02:00,
2013-07-28 23:32:00,64.0,42.0,-100.00,SSW,205,1.0,11.0,45,0.00,,,0.09,0.000000,,2013-07-29 05:32:00,
2013-07-28 23:43:00,64.0,42.0,-100.00,SSW,205,1.0,11.0,45,0.00,,,0.09,0.000000,,2013-07-29 05:43:00,
2013-07-28 23:53:00,64.0,42.0,-100.00,SSW,205,1.0,11.0,45,0.00,,,0.09,0.000000,,2013-07-29 05:53:00,